Stroh, IN (46789)

2:01 PM EDT on March 30, 2017 (GMT -0400)
South 890 East | | Change Station

Elev 980 ft 41.58 °N, 85.26 °W | Updated 7 minutes ago

Rain
Rain
41.2 °F
Feels Like 34 °F
N
13.0
Wind Variable Wind from SE
Gusts 16.8 mph

Today
High -- | Low -- °F
--% Chance of Precip.
Yesterday
High -- | Low -- °F
Precip. -- in
Pressure 29.76 in
Visibility 10.0 miles
Clouds Mostly Cloudy 900 ft
Overcast 1400 ft
Windchill 34 °F
Dew Point 39 °F
Humidity 91%
Rainfall 2.24 in
Snow Depth Not available.
7:26 AM 8:04 PM
Waxing Crescent, 10% visible
METAR KANQ 301755Z AUTO 11016KT 10SM BKN009 OVC014 05/01 A2976 RMK
Pressure 29.76 in
Visibility 10.0 miles
Clouds Mostly Cloudy 900 ft
Overcast 1400 ft
Windchill 34 °F
Dew Point 39 °F
Humidity 91%
Rainfall 2.24 in
Snow Depth Not available.
7:26 AM 8:04 PM
Waxing Crescent, 10% visible
METAR KANQ 301755Z AUTO 11016KT 10SM BKN009 OVC014 05/01 A2976 RMK

Get Severe Weather Alerts

Thanks for signing up!

Be on the lookout for a verification email in your inbox.

You'll start receiving the daily forecast at 8 AM.

×

10-Day Weather Forecast

Almanac

Astronomy

Mar. 30, 2017 Rise Set
Actual Time
Civil Twilight
Nautical Twilight
Astronomical Twilight
Moon
Length of Visible Light
Length of Day
Tomorrow will be .
, % of the Moon is Illuminated

Today's Extremes

State Highs State Lows

Community

WunderPhotos

Upload Photos

1,962,540 photos uploaded!

WunderBlog® & News

Nearby

Air Quality

  Air Quality AQ Index Pollutant
Not available.

Snow Depth

Station Depth Elevation

Earthquake Activity

City Distance Mag. Time & Date
Minimum magnitude displayed is 2.5.

Earthquake Activity

City Distance Mag. Time & Date
Minimum magnitude displayed is 2.5.

Coastal Water Temperatures

Place Temperature

Stations

Nearby Weather Stations

Station Location Temp. Windchill Dew Point Humidity Wind Precip. Elev Updated Type
                   

Watches & Warnings

There are currently no watches in effect.